Time;durP1;ratioP1;P1;durP2;ratioP2;P2;SDS_P1;SDS_P2;PMS_P1;PMS_P2;Temp;Humidity;BMP_temperature;BMP_pressure;BME280_temperature;BME280_humidity;BME280_pressure;Samples;Min_cycle;Max_cycle;Signal;HPM_P1;HPM_P2
2021/06/16 00:00:20;;;;;;;4.68;2.70;;;22.50;47.70;;;22.90;39.12;97629.53;5044729;28;20052;-44
2021/06/16 00:02:48;;;;;;;3.80;2.80;;;22.40;47.50;;;22.86;38.87;97624.84;5044996;28;20082;-44
2021/06/16 00:05:28;;;;;;;4.57;2.80;;;22.40;47.20;;;22.82;38.97;97627.22;5044982;28;20049;-44
2021/06/16 00:07:57;;;;;;;4.75;2.85;;;22.40;47.60;;;22.78;38.73;97632.28;5045203;28;20065;-42
2021/06/16 00:10:29;;;;;;;4.82;2.60;;;22.30;47.20;;;22.72;38.98;97624.28;5044130;28;20055;-42
2021/06/16 00:13:00;;;;;;;2.60;2.40;;;22.20;47.50;;;22.65;39.15;97621.69;5045063;28;20208;-42
2021/06/16 00:15:35;;;;;;;3.17;2.85;;;22.10;47.60;;;22.63;38.94;97621.13;5045549;28;20619;-44
2021/06/16 00:18:04;;;;;;;3.40;3.03;;;22.10;47.60;;;22.60;39.55;97621.59;5045511;28;20350;-43
2021/06/16 00:20:33;;;;;;;3.25;2.47;;;22.10;47.70;;;22.58;39.34;97618.28;5045948;28;20057;-44
2021/06/16 00:23:02;;;;;;;3.38;3.00;;;22.10;47.70;;;22.55;39.57;97618.78;5048085;28;20075;-43
2021/06/16 00:25:31;;;;;;;3.35;2.83;;;22.10;48.00;;;22.54;39.54;97622.53;5047053;28;20263;-42
2021/06/16 00:27:58;;;;;;;3.08;2.70;;;22.00;48.10;;;22.52;39.51;97614.63;5049717;28;20063;-43
2021/06/16 00:30:28;;;;;;;3.55;2.80;;;22.00;48.10;;;22.52;39.55;97619.25;5047380;28;20055;-42
2021/06/16 00:32:55;;;;;;;3.50;2.88;;;22.10;48.30;;;22.51;40.01;97623.03;5048252;28;20039;-43
2021/06/16 00:35:24;;;;;;;3.17;2.55;;;22.10;48.40;;;22.49;39.99;97612.44;5047663;28;20045;-45
2021/06/16 00:37:54;;;;;;;5.15;2.90;;;22.00;48.80;;;22.48;40.39;97613.47;5049808;28;20045;-43
2021/06/16 00:40:26;;;;;;;6.15;3.00;;;22.00;49.20;;;22.45;40.59;97613.97;5048668;28;20055;-45
2021/06/16 00:42:57;;;;;;;5.72;3.65;;;22.00;49.10;;;22.41;40.54;97619.03;5047920;28;20123;-42
2021/06/16 00:45:25;;;;;;;3.00;2.67;;;22.00;49.20;;;22.40;40.65;97614.66;5048730;28;20064;-43
2021/06/16 00:47:57;;;;;;;3.08;2.78;;;22.00;49.40;;;22.36;40.61;97612.69;5048900;28;20067;-45
2021/06/16 00:50:36;;;;;;;4.28;2.53;;;21.90;49.70;;;22.36;41.09;97626.22;5047631;28;20049;-43
2021/06/16 00:53:06;;;;;;;3.80;2.92;;;21.90;50.70;;;22.32;41.04;97625.88;5048167;28;20365;-42
2021/06/16 00:55:38;;;;;;;4.28;3.10;;;21.90;49.80;;;22.31;40.72;97616.09;5046686;28;20367;-43
2021/06/16 00:58:10;;;;;;;5.15;2.70;;;21.90;49.80;;;22.28;41.07;97616.56;5047978;28;20045;-42
2021/06/16 01:01:03;;;;;;;4.15;2.70;;;21.80;49.90;;;22.23;41.09;97621.84;5030943;28;20067;-44
2021/06/16 01:04:13;;;;;;;3.97;3.17;;;21.80;50.20;;;22.19;40.97;97613.34;5030770;28;20055;-44
2021/06/16 01:07:07;;;;;;;5.35;3.70;;;21.80;50.20;;;22.18;41.07;97613.63;5049053;28;20254;-46
2021/06/16 01:09:58;;;;;;;3.50;3.03;;;21.80;51.00;;;22.18;40.73;97610.91;5031138;28;20067;-43
2021/06/16 01:12:28;;;;;;;4.20;3.00;;;21.70;50.00;;;22.15;41.29;97612.19;5031973;28;20059;-44
2021/06/16 01:15:21;;;;;;;3.22;2.92;;;21.80;50.60;;;22.13;41.38;97614.31;5048474;28;20264;-44
2021/06/16 01:18:01;;;;;;;4.78;3.15;;;21.70;51.40;;;22.10;41.91;97613.94;5031597;28;20368;-44
2021/06/16 01:20:41;;;;;;;3.28;2.78;;;21.70;51.80;;;22.07;41.99;97614.44;5046742;28;20052;-44
2021/06/16 01:23:09;;;;;;;4.55;3.10;;;21.60;51.90;;;22.03;42.10;97614.06;5031964;28;20052;-44
2021/06/16 01:26:01;;;;;;;4.43;3.17;;;21.60;51.10;;;21.99;42.08;97604.75;5048079;28;20364;-44
2021/06/16 01:28:41;;;;;;;4.60;3.20;;;21.50;52.40;;;21.96;42.15;97608.75;5031818;28;20075;-44
2021/06/16 01:31:14;;;;;;;4.68;3.13;;;21.50;52.10;;;21.92;42.28;97607.56;5030048;28;20048;-44
2021/06/16 01:33:44;;;;;;;5.35;3.30;;;21.50;51.70;;;21.89;42.51;97609.94;5030453;28;20055;-43
2021/06/16 01:36:13;;;;;;;4.03;2.95;;;21.40;51.40;;;21.86;42.71;97613.13;5031124;28;20251;-44
2021/06/16 01:38:45;;;;;;;3.35;2.90;;;21.40;52.00;;;21.80;42.65;97607.56;5031912;28;20260;-43
2021/06/16 01:41:16;;;;;;;3.85;3.42;;;21.40;52.50;;;21.77;42.25;97615.34;5030433;28;20516;-43
2021/06/16 01:43:47;;;;;;;4.47;3.20;;;21.30;52.00;;;21.73;42.58;97609.59;5045827;28;20071;-43
2021/06/16 01:46:17;;;;;;;4.18;3.47;;;21.30;52.00;;;21.73;42.94;97616.88;5028024;28;20245;-43
2021/06/16 01:48:47;;;;;;;5.43;3.28;;;21.30;51.90;;;21.71;42.91;97613.56;5010405;28;20059;-43
2021/06/16 01:51:16;;;;;;;5.20;3.00;;;21.30;52.00;;;21.70;42.67;97612.75;5027326;28;20056;-44
2021/06/16 01:53:46;;;;;;;3.88;3.33;;;21.30;51.80;;;21.68;43.01;97611.34;5010992;28;20262;-42
2021/06/16 01:56:15;;;;;;;4.43;3.15;;;21.30;52.00;;;21.65;43.00;97611.78;5009952;28;20376;-42
2021/06/16 01:58:45;;;;;;;4.03;2.65;;;21.20;52.20;;;21.62;42.88;97613.91;5026698;28;20041;-43
2021/06/16 02:01:16;;;;;;;3.55;3.22;;;21.20;52.70;;;21.60;42.98;97605.19;5009906;28;20053;-44
2021/06/16 02:03:45;;;;;;;4.88;3.45;;;21.20;52.70;;;21.58;43.09;97601.91;5010673;28;20057;-43
2021/06/16 02:06:18;;;;;;;5.10;3.25;;;21.10;52.60;;;21.57;43.00;97602.13;5026652;28;20053;-44
2021/06/16 02:08:49;;;;;;;4.57;2.70;;;21.10;52.90;;;21.55;43.34;97596.13;5028346;28;20053;-46
2021/06/16 02:11:22;;;;;;;4.03;3.63;;;21.10;52.70;;;21.54;43.50;97597.16;5009826;28;20315;-43
2021/06/16 02:13:57;;;;;;;6.32;4.50;;;21.10;53.00;;;21.51;43.61;97594.94;5010885;28;20063;-44
2021/06/16 02:16:39;;;;;;;6.03;3.20;;;21.10;53.50;;;21.49;43.31;97603.28;5009557;28;20505;-44
2021/06/16 02:19:15;;;;;;;3.97;3.58;;;21.10;53.30;;;21.47;43.54;97601.88;5008975;28;20064;-43
2021/06/16 02:21:45;;;;;;;4.43;3.35;;;21.10;53.00;;;21.43;43.51;97593.34;5026442;28;20275;-44
2021/06/16 02:24:13;;;;;;;4.70;3.25;;;21.10;53.00;;;21.40;43.26;97596.50;5027000;28;20053;-43
2021/06/16 02:26:41;;;;;;;4.78;3.38;;;21.10;52.80;;;21.39;43.67;97594.88;5027049;28;20046;-43
2021/06/16 02:29:10;;;;;;;8.10;3.40;;;20.90;52.80;;;21.36;43.67;97584.50;5027753;28;20067;-45
2021/06/16 02:31:41;;;;;;;6.03;3.80;;;20.90;52.90;;;21.34;43.36;97587.44;5009701;28;20068;-45
2021/06/16 02:34:11;;;;;;;4.13;3.72;;;20.90;52.80;;;21.32;43.47;97586.84;5025520;28;20045;-43
2021/06/16 02:36:49;;;;;;;7.05;4.82;;;20.90;52.80;;;21.30;43.14;97583.53;5010323;28;20071;-43
2021/06/16 02:39:35;;;;;;;5.32;4.18;;;20.90;53.10;;;21.26;43.05;97579.66;5010001;28;20258;-46
2021/06/16 02:42:06;;;;;;;5.95;3.95;;;20.90;52.80;;;21.23;43.13;97580.13;5010539;28;20064;-44
2021/06/16 02:44:39;;;;;;;7.50;4.28;;;20.80;52.60;;;21.20;43.10;97575.97;5025812;28;20060;-44
2021/06/16 02:47:09;;;;;;;5.93;3.67;;;20.80;52.80;;;21.20;43.28;97577.88;5026362;28;20053;-45
2021/06/16 02:49:43;;;;;;;6.13;4.68;;;20.80;52.70;;;21.17;43.46;97583.75;5025707;28;20057;-43
2021/06/16 02:52:16;;;;;;;5.15;4.50;;;20.80;52.70;;;21.13;43.54;97577.97;5026059;28;20057;-43
2021/06/16 02:54:51;;;;;;;5.57;4.90;;;20.70;52.90;;;21.11;43.61;97580.09;5025304;28;20061;-44
2021/06/16 02:57:22;;;;;;;5.03;4.20;;;20.70;53.00;;;21.09;43.56;97579.47;5011191;28;20051;-43
2021/06/16 02:59:53;;;;;;;6.32;4.57;;;20.70;53.10;;;21.09;43.56;97576.75;5009712;28;20358;-44
2021/06/16 03:02:24;;;;;;;5.22;4.15;;;20.70;53.00;;;21.08;43.76;97564.31;5009351;28;20240;-45
2021/06/16 03:04:53;;;;;;;6.60;3.80;;;20.70;53.10;;;21.03;43.53;97575.00;5008168;28;20059;-43
2021/06/16 03:07:22;;;;;;;6.13;4.93;;;20.60;52.90;;;20.99;43.55;97569.19;5006452;28;20067;-47
2021/06/16 03:09:52;;;;;;;4.85;3.92;;;20.60;53.80;;;20.98;43.95;97572.97;5028229;28;20061;-44
2021/06/16 03:12:23;;;;;;;5.82;4.20;;;20.60;53.40;;;20.98;44.09;97569.47;5007935;28;20055;-46
2021/06/16 03:14:51;;;;;;;4.78;4.30;;;20.60;53.90;;;20.96;44.31;97575.09;5008891;28;20049;-46
2021/06/16 03:17:20;;;;;;;4.88;3.63;;;20.50;53.70;;;20.96;44.12;97572.38;5006913;28;20235;-44
2021/06/16 03:19:49;;;;;;;6.22;4.28;;;20.60;53.60;;;20.96;44.34;97574.28;5025624;28;20440;-44
2021/06/16 03:22:19;;;;;;;7.38;4.55;;;20.60;53.80;;;20.94;44.46;97573.69;5008874;28;20053;-44
2021/06/16 03:24:48;;;;;;;6.60;4.03;;;20.50;53.90;;;20.92;44.70;97570.34;5008346;28;20049;-44
2021/06/16 03:27:22;;;;;;;4.93;4.22;;;20.50;54.10;;;20.87;44.63;97573.75;5008483;28;20053;-43
2021/06/16 03:29:53;;;;;;;6.90;4.03;;;20.50;54.40;;;20.82;44.76;97582.56;5024933;28;20062;-44
2021/06/16 03:32:23;;;;;;;5.72;3.85;;;20.40;54.80;;;20.82;45.02;97576.31;5028514;28;20057;-44
2021/06/16 03:34:51;;;;;;;6.28;4.80;;;20.40;54.50;;;20.79;44.66;97577.59;5008927;28;20049;-46
2021/06/16 03:37:20;;;;;;;4.95;3.40;;;20.40;54.30;;;20.77;44.68;97571.59;5009603;28;20045;-43
2021/06/16 03:39:52;;;;;;;4.82;3.75;;;20.40;53.80;;;20.78;44.53;97572.41;5024306;28;20045;-46
2021/06/16 03:42:21;;;;;;;5.60;3.90;;;20.40;53.60;;;20.78;44.46;97573.25;5008073;28;20060;-43
2021/06/16 03:44:50;;;;;;;7.30;3.67;;;20.50;53.30;;;20.79;44.55;97568.66;5025046;28;20243;-44
2021/06/16 03:47:21;;;;;;;6.43;3.65;;;20.60;53.10;;;20.83;44.44;97573.38;5008311;28;20061;-44
2021/06/16 03:49:52;;;;;;;6.95;4.40;;;20.60;53.30;;;20.79;44.62;97571.38;5024618;28;20060;-46
2021/06/16 03:52:21;;;;;;;4.93;3.92;;;20.40;53.80;;;20.72;44.70;97568.75;5009300;28;20053;-44
2021/06/16 03:54:51;;;;;;;6.47;4.53;;;20.30;54.00;;;20.68;45.03;97572.13;5006848;28;20045;-44
2021/06/16 03:57:21;;;;;;;5.43;3.95;;;20.30;54.30;;;20.67;45.09;97568.63;5004744;28;20509;-45
2021/06/16 03:59:52;;;;;;;5.88;3.45;;;20.30;54.20;;;20.70;45.07;97568.16;5024429;28;20049;-45
2021/06/16 04:02:21;;;;;;;5.93;3.55;;;20.40;54.80;;;20.70;45.25;97570.03;5009178;28;20220;-45
2021/06/16 04:04:50;;;;;;;7.38;4.10;;;20.40;54.60;;;20.71;45.43;97569.00;5008021;28;20247;-45
2021/06/16 04:07:23;;;;;;;5.95;3.70;;;20.40;54.80;;;20.73;45.58;97578.53;5006587;28;20053;-46
2021/06/16 04:09:54;;;;;;;4.05;3.65;;;20.40;55.10;;;20.78;45.37;97575.13;5008662;28;20060;-44
2021/06/16 04:12:23;;;;;;;4.65;3.60;;;20.50;54.30;;;20.84;45.06;97571.53;5025825;28;20047;-47
2021/06/16 04:14:52;;;;;;;4.90;3.75;;;20.60;53.80;;;20.89;45.24;97568.94;5025778;28;20053;-48
2021/06/16 04:17:22;;;;;;;4.40;3.53;;;20.70;53.60;;;20.92;44.93;97570.34;5025774;28;20049;-46
2021/06/16 04:19:52;;;;;;;4.47;3.45;;;20.80;53.50;;;20.92;45.02;97570.34;5025509;28;20299;-47
2021/06/16 04:22:20;;;;;;;8.15;3.45;;;20.80;53.30;;;20.95;45.09;97569.91;5024959;28;20065;-46
2021/06/16 04:24:48;;;;;;;5.15;2.90;;;20.80;53.30;;;20.96;44.91;97566.16;5009632;28;20065;-46
2021/06/16 04:27:16;;;;;;;4.45;3.10;;;20.80;53.40;;;20.96;45.24;97566.16;5024182;28;20041;-45
2021/06/16 04:29:44;;;;;;;5.47;3.58;;;20.90;53.50;;;20.95;44.96;97568.00;5023480;28;20045;-44
2021/06/16 04:32:12;;;;;;;4.45;3.58;;;20.80;53.50;;;20.95;45.24;97561.78;5056236;22;20052;-58
2021/06/16 04:34:41;;;;;;;4.10;3.22;;;20.90;53.70;;;20.97;45.30;97557.78;5045000;28;20269;-57
2021/06/16 04:37:10;;;;;;;4.90;3.63;;;20.90;53.70;;;20.98;45.43;97562.16;5044169;28;20250;-57
2021/06/16 04:39:38;;;;;;;5.65;3.67;;;20.80;53.70;;;21.00;45.44;97559.22;5044474;28;20053;-56
2021/06/16 04:42:07;;;;;;;4.00;3.47;;;20.90;53.70;;;20.98;45.81;97554.03;5045730;28;20072;-58
2021/06/16 04:44:34;;;;;;;5.05;4.00;;;20.90;53.70;;;21.00;45.97;97556.53;5044831;28;20246;-57
2021/06/16 04:47:03;;;;;;;3.60;3.08;;;21.00;53.80;;;20.99;45.65;97560.28;5027026;28;20057;-54
2021/06/16 04:49:34;;;;;;;4.88;3.03;;;21.00;53.70;;;21.00;46.10;97551.09;5044024;28;20045;-58
2021/06/16 04:52:02;;;;;;;4.40;3.20;;;21.10;54.00;;;20.96;46.32;97545.31;5044995;28;20059;-56
2021/06/16 04:54:30;;;;;;;4.72;3.83;;;21.10;53.80;;;20.90;46.65;97548.09;5044372;28;20061;-55
2021/06/16 04:57:04;;;;;;;4.75;3.83;;;21.10;53.90;;;20.87;46.80;97549.41;5043672;28;20057;-57
2021/06/16 04:59:32;;;;;;;;;;;21.10;54.00;;;20.94;46.54;97549.34;5044983;28;20049;-56
2021/06/16 05:02:02;;;;;;;5.13;3.75;;;21.10;55.00;;;21.05;46.06;97553.94;5045604;28;19982;-56
2021/06/16 05:04:30;;;;;;;5.97;3.85;;;21.20;54.10;;;21.12;46.44;97551.97;5026925;28;20059;-57
2021/06/16 05:06:58;;;;;;;4.78;3.60;;;21.20;54.20;;;21.19;46.61;97555.41;5027700;28;20053;-56
2021/06/16 05:09:26;;;;;;;4.88;3.80;;;21.30;54.40;;;21.27;46.24;97546.13;5030330;28;20061;-55
2021/06/16 05:11:54;;;;;;;5.35;3.83;;;21.30;54.50;;;21.34;46.29;97546.00;5048740;28;20067;-55
2021/06/16 05:14:23;;;;;;;6.15;4.65;;;21.40;54.40;;;21.40;46.18;97548.63;5048870;28;20057;-56
2021/06/16 05:16:54;;;;;;;5.40;3.63;;;21.40;54.50;;;21.46;46.44;97540.63;5049439;28;20689;-57
2021/06/16 05:19:23;;;;;;;4.90;3.75;;;21.50;54.60;;;21.50;46.53;97541.81;5049772;28;20059;-55
2021/06/16 05:21:51;;;;;;;7.35;3.83;;;21.50;54.60;;;21.57;46.33;97534.41;5046688;28;20048;-58
2021/06/16 05:24:20;;;;;;;4.00;3.60;;;21.50;54.40;;;21.60;45.69;97537.47;5046100;28;20061;-56
2021/06/16 05:26:48;;;;;;;5.88;3.85;;;21.60;53.80;;;21.67;46.12;97544.66;5047354;28;20044;-54
2021/06/16 05:29:16;;;;;;;7.32;3.63;;;21.70;53.90;;;21.69;45.60;97543.34;5047607;28;20220;-57
2021/06/16 05:31:43;;;;;;;4.35;3.38;;;21.70;53.90;;;21.76;45.82;97543.25;5047732;28;20531;-57
2021/06/16 05:34:11;;;;;;;5.50;4.20;;;21.70;53.80;;;21.82;45.80;97543.13;5046675;28;20032;-57
2021/06/16 05:36:39;;;;;;;6.43;4.60;;;21.80;54.10;;;21.85;46.11;97539.16;5048048;28;20053;-55
2021/06/16 05:39:07;;;;;;;8.43;3.42;;;21.80;54.70;;;21.90;46.82;97544.66;5030233;28;20053;-58
2021/06/16 05:41:35;;;;;;;7.18;4.80;;;21.90;56.20;;;21.94;47.28;97543.13;5047526;28;20084;-56
2021/06/16 05:44:04;;;;;;;7.65;4.55;;;22.00;55.90;;;21.96;47.28;97548.31;5046750;28;20384;-56
2021/06/16 05:46:31;;;;;;;7.25;4.57;;;21.90;56.30;;;22.00;47.42;97541.34;5030406;28;20059;-55
2021/06/16 05:49:00;;;;;;;9.68;4.93;;;22.00;56.50;;;22.02;47.58;97541.94;5047616;28;20052;-57
2021/06/16 05:51:27;;;;;;;13.95;4.88;;;22.00;56.30;;;22.07;47.92;97549.38;5046589;28;20053;-57
2021/06/16 05:53:55;;;;;;;5.97;3.80;;;22.10;56.60;;;22.07;47.12;97544.78;5047740;28;20416;-56
2021/06/16 05:56:23;;;;;;;12.88;4.35;;;22.10;55.60;;;22.11;47.26;97548.66;5047858;28;20044;-57
2021/06/16 05:58:51;;;;;;;21.65;6.45;;;22.20;55.60;;;22.16;47.88;97548.78;5047323;28;20053;-55
2021/06/16 06:01:19;;;;;;;14.30;5.13;;;22.20;56.80;;;22.19;49.07;97552.88;5045784;28;20049;-57
2021/06/16 06:03:49;;;;;;;10.52;5.40;;;22.20;58.10;;;22.22;49.86;97547.81;5048154;28;20365;-56
2021/06/16 06:06:17;;;;;;;14.02;6.75;;;22.20;58.80;;;22.27;49.75;97554.44;5046139;28;20043;-55
2021/06/16 06:08:45;;;;;;;14.48;5.43;;;22.30;59.10;;;22.27;49.96;97549.84;5046860;28;20052;-56
2021/06/16 06:11:13;;;;;;;11.25;6.25;;;22.30;59.30;;;22.31;50.28;97555.59;5028089;28;20053;-54
2021/06/16 06:13:41;;;;;;;12.00;4.97;;;22.30;59.50;;;22.34;49.86;97544.28;5046534;28;20052;-58
2021/06/16 06:16:11;;;;;;;10.30;6.05;;;22.30;59.40;;;22.36;50.25;97551.13;5028793;28;20048;-55
2021/06/16 06:18:39;;;;;;;13.38;5.47;;;22.40;59.90;;;22.38;50.62;97550.88;5028376;28;20057;-53
2021/06/16 06:21:07;;;;;;;14.98;5.35;;;22.40;59.70;;;22.40;50.22;97563.13;5046622;28;20377;-55
2021/06/16 06:23:36;;;;;;;13.50;5.68;;;22.40;59.40;;;22.45;49.39;97556.16;5044974;28;20041;-56
2021/06/16 06:26:04;;;;;;;7.95;4.93;;;22.50;58.90;;;22.44;48.37;97555.34;5047606;28;20233;-57
2021/06/16 06:28:32;;;;;;;15.95;4.72;;;22.50;57.00;;;22.49;47.58;97551.91;5046959;28;20048;-56
2021/06/16 06:31:00;;;;;;;8.85;4.32;;;22.60;56.20;;;22.52;47.68;97549.53;5047456;28;20066;-56
2021/06/16 06:33:28;;;;;;;15.65;4.25;;;22.60;55.90;;;22.56;46.86;97553.41;5045691;28;20048;-57
2021/06/16 06:35:56;;;;;;;16.25;5.93;;;22.60;55.40;;;22.59;46.89;97550.22;5046613;28;20059;-57
2021/06/16 06:38:24;;;;;;;12.00;4.68;;;22.70;55.10;;;22.62;46.84;97554.34;5047843;28;20060;-58
2021/06/16 06:40:52;;;;;;;10.23;3.58;;;22.80;54.70;;;22.66;46.34;97551.97;5046230;28;20404;-58
2021/06/16 06:43:20;;;;;;;10.55;3.92;;;22.80;54.10;;;22.70;45.98;97550.44;5046194;28;20053;-56
2021/06/16 06:45:47;;;;;;;7.53;4.00;;;22.80;54.10;;;22.72;45.59;97551.84;5047271;28;20052;-55
2021/06/16 06:48:15;;;;;;;10.05;4.20;;;22.90;53.60;;;22.77;45.83;97543.78;5045897;28;20053;-54
2021/06/16 06:50:43;;;;;;;10.23;4.15;;;22.90;53.70;;;22.81;45.63;97538.72;5045349;28;20071;-53
2021/06/16 06:53:11;;;;;;;8.60;3.65;;;23.00;53.40;;;22.87;45.34;97539.63;5046276;28;20056;-56
2021/06/16 06:55:40;;;;;;;6.53;3.45;;;23.00;53.40;;;22.89;45.32;97541.03;5045412;28;20049;-56
2021/06/16 06:58:09;;;;;;;10.52;3.65;;;23.10;53.30;;;22.95;45.25;97542.78;5043377;28;20061;-55
2021/06/16 07:00:37;;;;;;;8.82;3.80;;;23.10;53.00;;;22.98;44.78;97541.47;5045155;28;20056;-54
2021/06/16 07:03:05;;;;;;;6.47;4.53;;;23.10;52.80;;;22.99;44.92;97538.53;5045804;28;20063;-58
2021/06/16 07:05:33;;;;;;;6.05;3.63;;;23.10;52.60;;;23.06;45.16;97543.81;5044862;28;20056;-53
2021/06/16 07:08:01;;;;;;;11.57;4.00;;;23.20;53.50;;;23.10;44.70;97534.13;5044763;28;20057;-57
2021/06/16 07:10:30;;;;;;;7.25;4.40;;;23.30;52.60;;;23.12;44.74;97540.13;5046536;28;20053;-52
2021/06/16 07:12:58;;;;;;;6.50;3.38;;;23.30;52.40;;;23.18;44.60;97535.59;5044745;28;20429;-57
2021/06/16 07:15:26;;;;;;;9.18;4.13;;;23.30;52.30;;;23.22;44.67;97538.66;5029868;28;20060;-59
2021/06/16 07:17:54;;;;;;;7.68;3.58;;;23.40;52.30;;;23.24;44.72;97533.81;5045272;28;20041;-58
2021/06/16 07:20:23;;;;;;;7.28;3.53;;;23.40;52.40;;;23.30;44.64;97538.25;5046644;28;20044;-57
2021/06/16 07:22:51;;;;;;;7.30;3.80;;;23.40;52.30;;;23.32;44.04;97533.41;5047330;28;20231;-57
2021/06/16 07:25:20;;;;;;;7.10;3.55;;;23.50;51.60;;;23.35;44.08;97538.34;5046269;28;20228;-55
2021/06/16 07:27:49;;;;;;;6.90;4.07;;;23.50;51.50;;;23.42;44.57;97539.03;5047129;28;20382;-57
2021/06/16 07:30:18;;;;;;;6.25;4.43;;;23.60;52.10;;;23.48;44.72;97539.94;5043751;28;20048;-57
2021/06/16 07:32:46;;;;;;;6.28;3.88;;;23.60;52.50;;;23.52;44.91;97533.75;5044617;28;20057;-57
2021/06/16 07:35:15;;;;;;;6.93;3.60;;;23.70;52.70;;;23.56;44.99;97531.34;5044897;28;20068;-57
2021/06/16 07:37:43;;;;;;;7.75;3.38;;;23.70;52.90;;;23.61;45.51;97536.03;5044779;28;20392;-57
2021/06/16 07:40:11;;;;;;;4.30;3.40;;;23.80;53.30;;;23.68;45.23;97526.66;5045981;28;20059;-55
2021/06/16 07:42:41;;;;;;;5.93;3.30;;;23.80;53.00;;;23.72;44.81;97529.69;5045598;28;20056;-57
2021/06/16 07:45:10;;;;;;;4.82;3.45;;;23.90;52.70;;;23.77;44.99;97532.50;5044113;28;20110;-57
2021/06/16 07:47:38;;;;;;;4.25;3.75;;;23.90;52.80;;;23.81;45.60;97527.41;5043909;28;20065;-53
2021/06/16 07:50:08;;;;;;;4.80;3.40;;;24.00;53.70;;;23.86;45.12;97533.72;5033627;28;20048;-57
2021/06/16 07:52:38;;;;;;;4.90;4.13;;;24.10;53.10;;;23.90;45.78;97534.06;5038446;28;20350;-56
2021/06/16 07:55:08;;;;;;;5.07;3.78;;;24.10;53.70;;;23.96;45.95;97525.75;5044651;28;20265;-57
2021/06/16 07:57:36;;;;;;;5.80;2.95;;;24.10;53.90;;;24.03;45.93;97525.56;5043829;28;20362;-56
2021/06/16 08:00:05;;;;;;;7.55;4.80;;;24.20;53.90;;;24.08;45.61;97531.06;5047731;28;20074;-57
2021/06/16 08:02:40;;;;;;;5.20;3.75;;;24.30;53.70;;;24.12;45.06;97529.50;5049175;28;20054;-57
2021/06/16 08:05:12;;;;;;;;;;;24.30;53.10;;;24.14;45.40;97532.78;5037285;28;20362;-57
2021/06/16 08:07:40;;;;;;;4.07;3.60;;;24.30;53.60;;;24.24;44.91;97528.56;5051287;28;20118;-57
2021/06/16 08:10:09;;;;;;;5.47;3.63;;;24.30;53.00;;;24.25;44.78;97528.28;5055900;28;20057;-56
2021/06/16 08:12:38;;;;;;;5.10;3.42;;;24.40;53.00;;;24.30;44.51;97528.34;5052292;28;20414;-55
2021/06/16 08:15:07;;;;;;;4.38;3.88;;;24.40;52.50;;;24.36;44.13;97526.53;5051603;28;20045;-53
2021/06/16 08:17:36;;;;;;;7.05;4.25;;;24.50;52.00;;;24.42;44.62;97522.78;5056700;28;20057;-56
2021/06/16 08:20:06;;;;;;;5.00;4.38;;;24.60;52.70;;;24.49;45.17;97517.16;5051772;28;20053;-57
2021/06/16 08:22:34;;;;;;;7.03;4.72;;;24.70;53.10;;;24.55;45.10;97517.00;5048328;28;20049;-57
2021/06/16 08:25:07;;;;;;;5.13;3.90;;;24.70;53.20;;;24.61;44.88;97511.63;5064548;28;20063;-57
2021/06/16 08:27:34;;;;;;;7.27;3.60;;;24.80;52.90;;;24.65;44.76;97513.56;5064168;28;20052;-55
2021/06/16 08:30:03;;;;;;;3.75;3.30;;;24.80;52.80;;;24.71;44.49;97511.72;5064929;28;20349;-57
2021/06/16 08:32:32;;;;;;;5.22;4.00;;;24.90;52.50;;;24.74;44.59;97511.22;5065366;28;20059;-57
2021/06/16 08:35:00;;;;;;;4.32;3.53;;;24.90;52.60;;;24.78;44.77;97506.91;5063474;28;20065;-57
2021/06/16 08:37:28;;;;;;;6.28;4.00;;;25.00;52.60;;;24.83;44.38;97511.56;5064896;28;20058;-56
2021/06/16 08:39:56;;;;;;;5.35;4.32;;;25.00;52.30;;;24.86;44.47;97511.88;5064670;28;20056;-54
2021/06/16 08:42:27;;;;;;;6.25;4.53;;;25.10;52.40;;;24.94;44.07;97518.78;5063930;28;20048;-56
2021/06/16 08:44:57;;;;;;;4.63;3.75;;;25.20;52.00;;;24.99;44.16;97510.66;5069460;28;20048;-48
2021/06/16 08:47:26;;;;;;;5.32;4.32;;;25.20;52.10;;;25.04;44.75;97518.06;5067681;28;20087;-45
2021/06/16 08:49:55;;;;;;;6.85;5.25;;;25.20;52.70;;;25.08;45.17;97511.00;5068699;28;20058;-43
2021/06/16 08:52:23;;;;;;;6.97;4.20;;;25.30;53.00;;;25.13;44.76;97516.50;5068092;28;20051;-46
2021/06/16 08:54:51;;;;;;;5.95;3.97;;;25.30;52.70;;;25.19;43.89;97509.22;5067014;28;20056;-44
2021/06/16 08:57:18;;;;;;;7.10;5.07;;;25.40;51.70;;;25.24;44.50;97499.22;5038617;28;20049;-44
2021/06/16 08:59:46;;;;;;;5.82;4.05;;;25.40;52.20;;;25.27;44.58;97498.69;5062441;28;20045;-45
2021/06/16 09:02:14;;;;;;;8.27;4.88;;;25.50;52.50;;;25.31;44.64;97502.53;5059629;28;20056;-45
2021/06/16 09:04:53;;;;;;;5.57;4.68;;;25.50;52.40;;;25.36;44.60;97501.75;5062164;28;20056;-44
2021/06/16 09:07:30;;;;;;;7.03;4.78;;;25.60;52.80;;;25.41;44.75;97507.25;5061266;28;20056;-42
2021/06/16 09:10:19;;;;;;;6.82;4.35;;;25.60;52.50;;;25.45;44.50;97507.53;5062502;28;20090;-48
2021/06/16 09:12:57;;;;;;;5.50;4.25;;;25.70;52.40;;;25.49;43.94;97506.78;5063454;28;20059;-48
2021/06/16 09:15:29;;;;;;;7.10;4.43;;;25.70;51.60;;;25.52;43.90;97497.25;5063533;28;20051;-45
2021/06/16 09:18:09;;;;;;;8.55;4.32;;;25.80;51.40;;;25.57;43.54;97500.03;5047320;28;20242;-46
2021/06/16 09:20:47;;;;;;;6.72;4.50;;;25.80;51.10;;;25.66;43.10;97498.44;5065089;28;20045;-47
2021/06/16 09:23:27;;;;;;;7.90;4.97;;;25.90;50.70;;;25.73;43.37;97501.75;5065067;28;20055;-47
2021/06/16 09:26:18;;;;;;;6.10;4.25;;;26.00;50.70;;;25.76;42.91;97500.41;5064925;28;20075;-45
2021/06/16 09:28:50;;;;;;;5.40;3.90;;;26.00;50.20;;;25.79;42.83;97499.06;5064446;28;20059;-45
2021/06/16 09:31:21;;;;;;;8.40;4.78;;;26.00;50.80;;;25.84;43.29;97497.19;5064372;28;20053;-48
2021/06/16 09:33:51;;;;;;;5.85;4.45;;;26.10;50.80;;;25.90;42.59;97500.75;5064405;28;20054;-44
2021/06/16 09:36:22;;;;;;;5.45;3.67;;;26.10;50.30;;;25.97;43.04;97497.84;5064758;28;20063;-44
2021/06/16 09:38:52;;;;;;;5.97;4.32;;;26.20;50.50;;;26.03;42.49;97496.78;5063491;28;20051;-45
2021/06/16 09:41:23;;;;;;;6.95;4.13;;;26.20;49.90;;;26.08;42.24;97496.81;5059529;28;20235;-43
2021/06/16 09:43:56;;;;;;;6.38;4.32;;;26.30;49.40;;;26.10;42.19;97486.47;5059771;28;20065;-46
2021/06/16 09:46:24;;;;;;;6.60;4.05;;;26.30;49.60;;;26.16;42.35;97493.56;5057879;28;20049;-46
2021/06/16 09:48:53;;;;;;;7.78;4.28;;;26.40;49.50;;;26.21;41.81;97493.59;5055897;28;20184;-43
2021/06/16 09:51:43;;;;;;;4.65;3.78;;;26.50;48.90;;;26.26;40.38;97493.63;5053531;28;20067;-43
2021/06/16 09:54:19;;;;;;;6.10;4.55;;;26.50;47.90;;;26.35;40.24;97496.66;5053684;28;20053;-43
2021/06/16 09:56:59;;;;;;;9.50;3.78;;;26.60;47.30;;;26.42;40.68;97494.50;5053920;28;20053;-43
2021/06/16 09:59:46;;;;;;;6.07;4.15;;;26.70;47.50;;;26.47;41.03;97491.78;5050494;28;20051;-45
2021/06/16 10:02:15;;;;;;;9.13;4.50;;;26.80;47.00;;;26.55;40.97;97493.19;5014987;28;20063;-44
2021/06/16 10:04:50;;;;;;;6.43;3.80;;;26.90;47.60;;;26.59;40.54;97485.31;5048964;28;20439;-45
2021/06/16 10:07:25;;;;;;;6.05;4.53;;;27.00;47.40;;;26.63;40.07;97483.69;5048965;28;20087;-43
2021/06/16 10:10:08;;;;;;;5.97;4.30;;;27.00;47.00;;;26.72;39.38;97482.06;5047330;28;20064;-46
2021/06/16 10:12:40;;;;;;;6.65;3.83;;;27.10;46.20;;;26.79;39.21;97476.34;5046866;28;20047;-46
2021/06/16 10:15:15;;;;;;;6.30;4.22;;;27.10;45.80;;;26.89;38.46;97477.19;5031353;28;20055;-47
2021/06/16 10:17:45;;;;;;;5.60;4.45;;;27.20;44.80;;;26.96;38.31;97481.56;5048288;28;20153;-43
2021/06/16 10:20:16;;;;;;;9.05;4.07;;;27.30;45.20;;;27.05;37.92;97480.75;5047019;28;20045;-44
2021/06/16 10:22:44;;;;;;;5.78;3.88;;;27.40;44.90;;;27.13;38.10;97475.84;5046956;28;20053;-46
2021/06/16 10:25:12;;;;;;;3.78;3.30;;;27.50;44.50;;;27.18;37.54;97470.38;5046017;28;20051;-45
2021/06/16 10:27:56;;;;;;;7.30;3.92;;;27.50;43.90;;;27.23;36.23;97465.72;5047600;28;20056;-46
2021/06/16 10:30:28;;;;;;;4.25;3.85;;;27.60;41.80;;;27.31;36.90;97469.84;5047319;28;20060;-46
2021/06/16 10:32:57;;;;;;;5.03;3.53;;;27.70;42.90;;;27.41;36.91;97469.88;5047870;28;20049;-45
2021/06/16 10:35:33;;;;;;;4.28;3.72;;;27.70;43.50;;;27.51;36.16;97469.03;5046873;28;20242;-44